createdAt,value
2018-01-13T00:01:51.086Z,1.70
2018-01-13T00:04:19.819Z,1.60
2018-01-13T00:06:49.144Z,1.70
2018-01-13T00:09:17.694Z,1.70
2018-01-13T00:11:46.341Z,1.70
2018-01-13T00:14:15.921Z,1.70
2018-01-13T00:16:44.544Z,1.70
2018-01-13T00:19:13.123Z,1.80
2018-01-13T00:21:41.779Z,1.90
2018-01-13T00:24:10.363Z,1.90
2018-01-13T00:26:38.950Z,1.80
2018-01-13T00:29:07.502Z,1.90
2018-01-13T00:31:36.097Z,1.80
2018-01-13T00:34:04.665Z,1.80
2018-01-13T00:36:33.261Z,1.70
2018-01-13T00:39:02.625Z,1.70
2018-01-13T00:41:31.214Z,1.70
2018-01-13T00:43:59.844Z,1.70
2018-01-13T00:46:28.442Z,1.70
2018-01-13T00:48:57.109Z,1.70
2018-01-13T00:51:26.285Z,1.70
2018-01-13T00:53:54.940Z,1.70
2018-01-13T00:56:23.562Z,1.80
2018-01-13T00:58:52.194Z,1.80
2018-01-13T01:01:21.542Z,1.80
2018-01-13T01:03:50.144Z,1.70
2018-01-13T01:06:18.979Z,1.70
2018-01-13T01:08:47.540Z,1.80
2018-01-13T01:11:16.906Z,1.70
2018-01-13T01:16:20.294Z,1.70
2018-01-13T01:18:48.845Z,1.70
2018-01-13T01:21:20.354Z,1.70
2018-01-13T01:23:48.976Z,1.70
2018-01-13T01:26:17.578Z,1.70
2018-01-13T01:28:46.239Z,1.60
2018-01-13T01:31:17.824Z,1.60
2018-01-13T01:33:47.186Z,1.60
2018-01-13T01:36:15.763Z,1.60
2018-01-13T01:38:44.329Z,1.60
2018-01-13T01:41:12.905Z,1.50
2018-01-13T01:43:41.620Z,1.50
2018-01-13T01:46:10.240Z,1.50
2018-01-13T01:48:38.895Z,1.50
2018-01-13T01:51:07.526Z,1.60
2018-01-13T01:53:36.108Z,1.60
2018-01-13T01:56:04.862Z,1.50
2018-01-13T01:58:34.233Z,1.50
2018-01-13T02:01:02.869Z,1.50
2018-01-13T02:03:31.457Z,1.60
2018-01-13T02:06:00.064Z,1.60
2018-01-13T02:08:28.589Z,1.50
2018-01-13T02:10:57.181Z,1.50
2018-01-13T02:13:25.804Z,1.50
2018-01-13T02:15:54.424Z,1.50
2018-01-13T02:18:23.013Z,1.50
2018-01-13T02:20:51.587Z,1.50
2018-01-13T02:23:20.167Z,1.50
2018-01-13T02:25:48.819Z,1.50
2018-01-13T02:28:17.432Z,1.50
2018-01-13T02:30:46.016Z,1.50
2018-01-13T02:33:14.679Z,1.40
2018-01-13T02:38:16.412Z,1.40
2018-01-13T02:40:44.951Z,1.40
2018-01-13T02:43:13.583Z,1.40
2018-01-13T02:45:42.368Z,1.40
2018-01-13T02:48:11.729Z,1.30
2018-01-13T02:50:40.286Z,1.30
2018-01-13T02:53:08.941Z,1.40
2018-01-13T02:55:37.548Z,1.40
2018-01-13T02:58:06.130Z,1.40
2018-01-13T03:00:34.777Z,1.40
2018-01-13T03:03:03.368Z,1.40
2018-01-13T03:05:32.019Z,1.40
2018-01-13T03:08:00.574Z,1.40
2018-01-13T03:10:29.140Z,1.40
2018-01-13T03:12:57.420Z,1.40
2018-01-13T03:15:25.986Z,1.30
2018-01-13T03:17:54.570Z,1.20
2018-01-13T03:20:24.558Z,1.10
2018-01-13T03:22:53.937Z,1.10
2018-01-13T03:25:22.569Z,1.10
2018-01-13T03:27:51.163Z,1.10
2018-01-13T03:32:53.707Z,1.10
2018-01-13T03:35:22.282Z,1.10
2018-01-13T03:37:50.902Z,1.20
2018-01-13T03:40:19.454Z,1.30
2018-01-13T03:42:48.021Z,1.20
2018-01-13T03:45:16.609Z,1.30
2018-01-13T03:47:45.928Z,1.30
2018-01-13T03:50:15.294Z,1.20
2018-01-13T03:52:43.914Z,1.20
2018-01-13T03:55:12.557Z,1.40
2018-01-13T03:57:41.976Z,1.40
2018-01-13T04:00:10.582Z,1.40
2018-01-13T04:02:39.202Z,1.60
2018-01-13T04:05:08.135Z,1.40
2018-01-13T04:07:38.146Z,1.40
2018-01-13T04:10:06.732Z,1.40
2018-01-13T04:12:35.312Z,1.50
2018-01-13T04:15:03.895Z,1.40
2018-01-13T04:17:33.288Z,1.50
2018-01-13T04:20:01.855Z,1.50
2018-01-13T04:22:31.197Z,1.50
2018-01-13T04:24:59.785Z,1.50
2018-01-13T04:27:29.155Z,1.50
2018-01-13T04:29:57.713Z,1.50
2018-01-13T04:32:27.101Z,1.40
2018-01-13T04:34:56.479Z,1.50
2018-01-13T04:37:25.799Z,1.60
2018-01-13T04:39:54.020Z,1.60
2018-01-13T04:42:22.607Z,1.50
2018-01-13T04:44:51.224Z,1.40
2018-01-13T04:47:20.587Z,1.50
2018-01-13T04:49:49.155Z,1.50
2018-01-13T04:52:17.725Z,1.70
2018-01-13T04:54:46.266Z,1.70
2018-01-13T04:57:14.817Z,1.70
2018-01-13T04:59:43.436Z,1.70
2018-01-13T05:02:12.801Z,1.90
2018-01-13T05:04:41.345Z,1.90
2018-01-13T05:07:10.705Z,2.00
2018-01-13T05:09:39.282Z,2.00
2018-01-13T05:12:07.901Z,1.80
2018-01-13T05:14:36.530Z,1.90
2018-01-13T05:17:05.126Z,2.00
2018-01-13T05:19:33.743Z,1.90
2018-01-13T05:22:02.349Z,1.80
2018-01-13T05:24:30.951Z,1.90
2018-01-13T05:26:59.525Z,1.70
2018-01-13T05:29:28.088Z,1.60
2018-01-13T05:31:56.631Z,1.70
2018-01-13T05:34:25.228Z,1.50
2018-01-13T05:36:53.771Z,1.50
2018-01-13T05:39:22.376Z,1.50
2018-01-13T05:41:51.749Z,1.60
2018-01-13T05:44:20.406Z,1.50
2018-01-13T05:46:48.995Z,1.50
2018-01-13T05:49:17.570Z,1.50
2018-01-13T05:51:46.220Z,1.50
2018-01-13T05:54:14.800Z,1.60
2018-01-13T05:56:43.409Z,1.60
2018-01-13T05:59:12.031Z,1.50
2018-01-13T06:01:40.447Z,1.60
2018-01-13T06:04:08.984Z,1.60
2018-01-13T06:06:37.546Z,1.50
2018-01-13T06:09:05.774Z,1.60
2018-01-13T06:11:34.354Z,1.50
2018-01-13T06:14:03.732Z,1.50
2018-01-13T06:16:32.373Z,1.50
2018-01-13T06:19:01.720Z,1.50
2018-01-13T06:21:31.025Z,1.50
2018-01-13T06:24:00.072Z,1.50
2018-01-13T06:29:02.118Z,1.70
2018-01-13T06:31:30.717Z,1.70
2018-01-13T06:33:59.256Z,1.80
2018-01-13T06:36:27.781Z,1.70
2018-01-13T06:38:56.400Z,1.60
2018-01-13T06:41:28.609Z,1.50
2018-01-13T06:43:57.904Z,1.80
2018-01-13T06:46:26.496Z,1.80
2018-01-13T06:48:55.090Z,1.70
2018-01-13T06:51:23.742Z,1.80
2018-01-13T06:53:52.294Z,1.80
2018-01-13T06:56:20.888Z,1.70
2018-01-13T06:58:50.199Z,1.70
2018-01-13T07:01:19.533Z,1.60
2018-01-13T07:03:48.093Z,1.60
2018-01-13T07:06:16.665Z,1.70
2018-01-13T07:08:46.003Z,1.70
2018-01-13T07:11:14.568Z,1.70
2018-01-13T07:16:16.384Z,1.70
2018-01-13T07:18:45.335Z,1.50
2018-01-13T07:21:14.665Z,1.30
2018-01-13T07:23:43.260Z,1.30
2018-01-13T07:26:11.917Z,1.50
2018-01-13T07:28:40.449Z,1.40
2018-01-13T07:31:09.028Z,1.50
2018-01-13T07:33:37.683Z,1.50
2018-01-13T07:36:06.294Z,1.60
2018-01-13T07:38:34.840Z,1.60
2018-01-13T07:41:03.420Z,1.50
2018-01-13T07:43:34.066Z,1.60
2018-01-13T07:46:02.825Z,1.70
2018-01-13T07:48:32.202Z,1.70
2018-01-13T07:51:00.861Z,1.60
2018-01-13T07:53:30.193Z,1.60
2018-01-13T07:55:58.759Z,1.50
2018-01-13T07:58:27.358Z,1.70
2018-01-13T08:00:55.963Z,1.70
2018-01-13T08:03:24.532Z,1.70
2018-01-13T08:05:53.450Z,1.80
2018-01-13T08:08:22.057Z,1.90
2018-01-13T08:13:24.004Z,2.00
2018-01-13T08:15:53.383Z,1.90
2018-01-13T08:18:21.941Z,1.90
2018-01-13T08:20:50.495Z,2.00
2018-01-13T08:23:19.149Z,1.80
2018-01-13T08:25:47.742Z,1.90
2018-01-13T08:28:16.299Z,1.80
2018-01-13T08:30:44.852Z,1.90
2018-01-13T08:33:16.135Z,1.90
2018-01-13T08:35:45.214Z,1.90
2018-01-13T08:38:13.848Z,1.90
2018-01-13T08:40:42.444Z,2.00
2018-01-13T08:43:11.219Z,1.90
2018-01-13T08:45:40.012Z,2.00
2018-01-13T08:48:08.566Z,1.90
2018-01-13T08:50:38.340Z,1.80
2018-01-13T08:53:06.981Z,1.90
2018-01-13T08:58:29.617Z,1.90
2018-01-13T09:00:58.823Z,2.00
2018-01-13T09:03:27.231Z,1.90
2018-01-13T09:05:55.651Z,1.90
2018-01-13T09:08:24.046Z,1.90
2018-01-13T09:10:52.660Z,1.90
2018-01-13T09:13:21.958Z,1.90
2018-01-13T09:15:51.378Z,1.90
2018-01-13T09:18:20.663Z,1.90
2018-01-13T09:20:49.940Z,1.90
2018-01-13T09:23:18.236Z,1.80
2018-01-13T09:25:47.655Z,1.90
2018-01-13T09:28:16.147Z,1.90
2018-01-13T09:30:44.980Z,1.90
2018-01-13T09:33:13.470Z,1.90
2018-01-13T09:35:41.999Z,1.90
2018-01-13T09:38:10.472Z,1.90
2018-01-13T09:40:39.028Z,1.80
2018-01-13T09:43:08.554Z,1.90
2018-01-13T09:45:37.070Z,1.90
2018-01-13T09:48:05.582Z,1.90
2018-01-13T09:50:34.142Z,1.90
2018-01-13T09:53:02.661Z,1.90
2018-01-13T09:55:31.896Z,2.00
2018-01-13T09:58:00.094Z,1.90
2018-01-13T10:00:28.616Z,1.90
2018-01-13T10:02:57.928Z,1.80
2018-01-13T10:05:26.399Z,1.80
2018-01-13T10:07:55.639Z,1.90
2018-01-13T10:10:24.154Z,1.80
2018-01-13T10:12:52.713Z,1.80
2018-01-13T10:15:20.906Z,1.80
2018-01-13T10:17:49.420Z,1.80
2018-01-13T10:20:18.054Z,1.80
2018-01-13T10:22:47.372Z,1.70
2018-01-13T10:25:16.844Z,1.80
2018-01-13T10:27:45.449Z,1.80
2018-01-13T10:30:13.995Z,1.80
2018-01-13T10:32:42.475Z,1.90
2018-01-13T10:35:10.963Z,1.80
2018-01-13T10:37:39.433Z,1.90
2018-01-13T10:40:07.974Z,1.90
2018-01-13T10:42:37.220Z,2.00
2018-01-13T10:45:05.732Z,2.00
2018-01-13T10:47:34.212Z,1.90
2018-01-13T10:50:02.759Z,2.00
2018-01-13T10:52:31.261Z,2.00
2018-01-13T10:54:59.727Z,2.00
2018-01-13T10:57:28.210Z,1.90
2018-01-13T10:59:56.737Z,2.00
2018-01-13T11:02:26.018Z,1.90
2018-01-13T11:04:55.261Z,2.00
2018-01-13T11:07:23.778Z,1.90
2018-01-13T11:09:52.321Z,2.00
2018-01-13T11:12:20.787Z,2.10
2018-01-13T11:14:48.965Z,2.10
2018-01-13T11:17:17.912Z,2.20
2018-01-13T11:19:47.113Z,2.10
2018-01-13T11:22:16.169Z,2.10
2018-01-13T11:24:44.741Z,2.10
2018-01-13T11:27:13.266Z,2.10
2018-01-13T11:29:41.782Z,2.10
2018-01-13T11:32:10.258Z,2.10
2018-01-13T11:34:38.813Z,2.20
2018-01-13T11:37:08.103Z,2.00
2018-01-13T11:39:36.601Z,2.00
2018-01-13T11:42:05.844Z,2.20
2018-01-13T11:44:34.359Z,2.20
2018-01-13T11:47:02.830Z,2.20
2018-01-13T11:49:31.347Z,2.20
2018-01-13T11:51:59.976Z,2.20
2018-01-13T11:54:28.497Z,2.10
2018-01-13T11:56:57.741Z,2.20
2018-01-13T11:59:26.231Z,2.20
2018-01-13T12:01:54.774Z,2.20
2018-01-13T12:04:23.290Z,2.10
2018-01-13T12:06:51.760Z,2.10
2018-01-13T12:09:20.253Z,2.10
2018-01-13T12:11:48.718Z,2.20
2018-01-13T12:14:18.119Z,2.30
2018-01-13T12:16:47.490Z,2.20
2018-01-13T12:19:16.590Z,2.10
2018-01-13T12:21:45.160Z,2.10
2018-01-13T12:24:14.653Z,2.30
2018-01-13T12:26:43.913Z,2.30
2018-01-13T12:29:12.416Z,2.30
2018-01-13T12:31:40.966Z,2.40
2018-01-13T12:34:09.465Z,2.40
2018-01-13T12:36:37.954Z,2.30
2018-01-13T12:39:06.642Z,2.30
2018-01-13T12:41:35.898Z,2.20
2018-01-13T12:44:04.426Z,2.20
2018-01-13T12:46:33.359Z,2.20
2018-01-13T12:49:01.923Z,2.20
2018-01-13T12:51:30.408Z,2.30
2018-01-13T12:53:58.966Z,2.20
2018-01-13T12:56:28.277Z,2.20
2018-01-13T12:58:57.557Z,2.20
2018-01-13T13:01:26.805Z,2.30
2018-01-13T13:03:55.329Z,2.30
2018-01-13T13:06:23.850Z,2.30
2018-01-13T13:08:52.370Z,2.20
2018-01-13T13:11:20.864Z,2.10
2018-01-13T13:13:49.354Z,2.00
2018-01-13T13:16:17.865Z,2.00
2018-01-13T13:18:46.361Z,2.10
2018-01-13T13:21:15.418Z,2.20
2018-01-13T13:23:44.764Z,2.20
2018-01-13T13:26:13.257Z,2.20
2018-01-13T13:28:41.782Z,2.30
2018-01-13T13:31:10.322Z,2.20
2018-01-13T13:33:38.830Z,2.20
2018-01-13T13:36:08.162Z,2.40
2018-01-13T13:38:37.598Z,2.50
2018-01-13T13:41:06.130Z,2.50
2018-01-13T13:43:35.373Z,2.40
2018-01-13T13:46:03.916Z,2.40
2018-01-13T13:48:32.459Z,2.40
2018-01-13T13:51:01.005Z,2.30
2018-01-13T13:53:29.519Z,2.30
2018-01-13T13:55:58.041Z,2.40
2018-01-13T13:58:26.613Z,2.30
2018-01-13T14:00:55.079Z,2.20
2018-01-13T14:03:24.363Z,2.10
2018-01-13T14:05:52.902Z,2.10
2018-01-13T14:08:21.390Z,2.00
2018-01-13T14:10:49.910Z,2.00
2018-01-13T14:13:19.170Z,2.20
2018-01-13T14:15:47.676Z,2.20
2018-01-13T14:18:16.848Z,2.30
2018-01-13T14:20:45.597Z,2.40
2018-01-13T14:23:14.117Z,2.40
2018-01-13T14:25:42.653Z,2.40
2018-01-13T14:28:11.166Z,2.50
2018-01-13T14:30:39.664Z,2.50
2018-01-13T14:33:08.936Z,2.40
2018-01-13T14:35:37.449Z,2.50
2018-01-13T14:38:05.933Z,2.50
2018-01-13T14:40:34.445Z,2.50
2018-01-13T14:43:03.774Z,2.40
2018-01-13T14:45:32.253Z,2.40
2018-01-13T14:48:00.769Z,2.30
2018-01-13T14:50:29.331Z,2.30
2018-01-13T14:52:58.611Z,2.20
2018-01-13T14:55:27.083Z,2.20
2018-01-13T14:57:55.579Z,2.20
2018-01-13T15:00:24.125Z,2.20
2018-01-13T15:02:53.367Z,2.10
2018-01-13T15:05:21.838Z,2.10
2018-01-13T15:07:50.405Z,2.10
2018-01-13T15:10:19.815Z,2.10
2018-01-13T15:12:48.104Z,2.00
2018-01-13T15:15:17.348Z,2.10
2018-01-13T15:17:47.508Z,2.10
2018-01-13T15:20:16.976Z,2.10
2018-01-13T15:22:45.918Z,2.00
2018-01-13T15:25:14.877Z,2.00
2018-01-13T15:27:43.394Z,2.10
2018-01-13T15:30:11.901Z,2.10
2018-01-13T15:32:41.247Z,2.10
2018-01-13T15:35:09.763Z,2.10
2018-01-13T15:37:38.237Z,2.10
2018-01-13T15:40:06.735Z,2.10
2018-01-13T15:42:35.305Z,2.10
2018-01-13T15:45:03.775Z,2.10
2018-01-13T15:47:32.249Z,2.20
2018-01-13T15:50:00.606Z,2.20
2018-01-13T15:52:29.142Z,2.20
2018-01-13T15:54:58.394Z,2.20
2018-01-13T15:57:26.919Z,2.20
2018-01-13T15:59:55.827Z,2.20
2018-01-13T16:02:24.344Z,2.20
2018-01-13T16:04:52.868Z,2.10
2018-01-13T16:07:22.184Z,2.10
2018-01-13T16:09:50.698Z,2.10
2018-01-13T16:12:19.222Z,2.10
2018-01-13T16:14:47.745Z,2.10
2018-01-13T16:17:17.097Z,2.10
2018-01-13T16:19:45.650Z,2.10
2018-01-13T16:22:14.173Z,2.20
2018-01-13T16:24:43.492Z,2.10
2018-01-13T16:27:12.023Z,2.10
2018-01-13T16:29:40.545Z,2.10
2018-01-13T16:32:09.837Z,2.10
2018-01-13T16:34:39.103Z,2.10
2018-01-13T16:37:07.603Z,2.10
2018-01-13T16:39:36.184Z,2.10
2018-01-13T16:42:05.514Z,2.10
2018-01-13T16:44:34.034Z,2.10
2018-01-13T16:47:02.544Z,2.10
2018-01-13T16:49:31.678Z,2.10
2018-01-13T16:52:00.501Z,2.00
2018-01-13T16:54:29.799Z,2.00
2018-01-13T16:56:58.389Z,2.00
2018-01-13T16:59:27.689Z,2.00
2018-01-13T17:04:33.281Z,2.00
2018-01-13T17:07:02.768Z,2.00
2018-01-13T17:09:31.266Z,2.00
2018-01-13T17:12:00.215Z,2.10
2018-01-13T17:14:28.753Z,2.10
2018-01-13T17:16:57.335Z,2.10
2018-01-13T17:19:25.854Z,2.00
2018-01-13T17:21:54.459Z,2.00
2018-01-13T17:24:23.009Z,2.00
2018-01-13T17:26:51.549Z,2.00
2018-01-13T17:29:20.807Z,2.10
2018-01-13T17:31:49.288Z,2.10
2018-01-13T17:34:17.780Z,2.00
2018-01-13T17:36:46.580Z,2.00
2018-01-13T17:39:16.487Z,1.90
2018-01-13T17:41:46.298Z,1.90
2018-01-13T17:44:16.451Z,2.00
2018-01-13T17:46:45.298Z,2.00
2018-01-13T17:49:13.834Z,2.00
2018-01-13T17:51:42.353Z,2.00
2018-01-13T17:54:10.925Z,2.00
2018-01-13T17:56:39.571Z,2.00
2018-01-13T17:59:07.968Z,2.00
2018-01-13T18:01:36.513Z,2.00
2018-01-13T18:04:05.096Z,1.90
2018-01-13T18:06:33.713Z,1.90
2018-01-13T18:09:02.302Z,1.90
2018-01-13T18:11:30.798Z,1.90
2018-01-13T18:13:59.305Z,1.90
2018-01-13T18:16:27.835Z,1.90
2018-01-13T18:18:56.398Z,1.90
2018-01-13T18:21:24.927Z,1.90
2018-01-13T18:23:53.556Z,2.00
2018-01-13T18:26:22.329Z,1.90
2018-01-13T18:28:51.613Z,2.00
2018-01-13T18:31:21.471Z,2.00
2018-01-13T18:33:50.015Z,2.00
2018-01-13T18:36:18.621Z,2.00
2018-01-13T18:38:47.156Z,2.00
2018-01-13T18:41:16.476Z,1.90
2018-01-13T18:43:45.768Z,1.90
2018-01-13T18:46:15.814Z,2.00
2018-01-13T18:48:44.336Z,2.00
2018-01-13T18:51:12.845Z,2.00
2018-01-13T18:53:42.220Z,2.00
2018-01-13T18:56:10.720Z,1.90
2018-01-13T18:58:39.237Z,1.90
2018-01-13T19:01:07.809Z,1.90
2018-01-13T19:03:36.418Z,1.90
2018-01-13T19:06:05.254Z,1.80
2018-01-13T19:08:33.913Z,1.90
2018-01-13T19:11:02.394Z,1.80
2018-01-13T19:13:30.897Z,1.80
2018-01-13T19:16:00.196Z,2.00
2018-01-13T19:18:29.443Z,1.90
2018-01-13T19:20:58.121Z,1.90
2018-01-13T19:23:26.982Z,1.90
2018-01-13T19:25:56.303Z,2.00
2018-01-13T19:28:26.244Z,2.00
2018-01-13T19:30:55.818Z,2.00
2018-01-13T19:33:24.824Z,2.00
2018-01-13T19:35:53.712Z,2.00
2018-01-13T19:38:22.639Z,2.00
2018-01-13T19:40:51.215Z,2.00
2018-01-13T19:43:19.685Z,1.90
2018-01-13T19:45:48.264Z,1.90
2018-01-13T19:48:17.652Z,1.90
2018-01-13T19:50:46.233Z,1.90
2018-01-13T19:53:15.019Z,2.00
2018-01-13T19:55:43.637Z,1.90
2018-01-13T19:58:12.267Z,2.00
2018-01-13T20:00:40.803Z,1.90
2018-01-13T20:03:09.515Z,1.90
2018-01-13T20:05:38.047Z,1.90
2018-01-13T20:08:07.591Z,1.80
2018-01-13T20:10:36.871Z,1.80
2018-01-13T20:13:05.577Z,1.80
2018-01-13T20:15:35.208Z,1.80
2018-01-13T20:18:03.496Z,1.80
2018-01-13T20:20:32.004Z,1.80
2018-01-13T20:23:00.514Z,1.80
2018-01-13T20:25:29.852Z,1.80
2018-01-13T20:27:58.437Z,1.80
2018-01-13T20:30:26.983Z,1.80
2018-01-13T20:32:55.532Z,1.70
2018-01-13T20:35:23.910Z,1.90
2018-01-13T20:37:53.329Z,1.70
2018-01-13T20:40:22.577Z,1.80
2018-01-13T20:42:51.061Z,1.80
2018-01-13T20:45:19.555Z,1.80
2018-01-13T20:47:48.073Z,1.70
2018-01-13T20:50:17.356Z,1.70
2018-01-13T20:52:46.664Z,1.70
2018-01-13T20:55:16.396Z,1.60
2018-01-13T20:57:45.022Z,1.60
2018-01-13T21:00:13.617Z,1.60
2018-01-13T21:02:42.096Z,1.60
2018-01-13T21:05:10.580Z,1.60
2018-01-13T21:07:39.100Z,1.60
2018-01-13T21:10:07.607Z,1.60
2018-01-13T21:12:36.077Z,1.60
2018-01-13T21:15:04.590Z,1.70
2018-01-13T21:17:33.121Z,1.70
2018-01-13T21:20:01.652Z,1.70
2018-01-13T21:22:30.179Z,1.70
2018-01-13T21:24:58.726Z,1.70
2018-01-13T21:27:27.217Z,1.80
2018-01-13T21:29:56.476Z,1.80
2018-01-13T21:32:25.011Z,1.80
2018-01-13T21:34:54.295Z,1.80
2018-01-13T21:37:23.595Z,1.70
2018-01-13T21:39:52.856Z,1.70
2018-01-13T21:42:21.378Z,1.70
2018-01-13T21:44:50.642Z,1.70
2018-01-13T21:47:19.158Z,1.70
2018-01-13T21:49:48.441Z,1.60
2018-01-13T21:52:17.800Z,1.60
2018-01-13T21:54:46.316Z,1.60
2018-01-13T21:57:14.614Z,1.60
2018-01-13T21:59:43.804Z,1.60
2018-01-13T22:02:13.092Z,1.60
2018-01-13T22:04:41.653Z,1.60
2018-01-13T22:07:10.139Z,1.60
2018-01-13T22:09:38.645Z,1.60
2018-01-13T22:12:07.961Z,1.60
2018-01-13T22:14:36.325Z,1.60
2018-01-13T22:17:04.673Z,1.50
2018-01-13T22:19:33.205Z,1.50
2018-01-13T22:22:01.690Z,1.50
2018-01-13T22:24:30.164Z,1.50
2018-01-13T22:26:58.701Z,1.50
2018-01-13T22:29:27.175Z,1.40
2018-01-13T22:31:55.697Z,1.30
2018-01-13T22:34:24.173Z,1.40
2018-01-13T22:36:53.476Z,1.50
2018-01-13T22:39:21.997Z,1.40
2018-01-13T22:41:50.523Z,1.40
2018-01-13T22:44:19.804Z,1.30
2018-01-13T22:46:48.279Z,1.30
2018-01-13T22:49:16.812Z,1.30
2018-01-13T22:51:46.027Z,1.30
2018-01-13T22:54:15.349Z,1.30
2018-01-13T22:56:43.892Z,1.40
2018-01-13T22:59:12.358Z,1.30
2018-01-13T23:01:40.639Z,1.20
2018-01-13T23:04:09.189Z,1.20
2018-01-13T23:06:38.479Z,1.20
2018-01-13T23:09:06.814Z,1.20
2018-01-13T23:11:35.292Z,1.00
2018-01-13T23:14:03.772Z,1.10
2018-01-13T23:16:32.297Z,1.10
2018-01-13T23:19:00.923Z,1.20
2018-01-13T23:21:29.393Z,1.20
2018-01-13T23:23:57.932Z,1.10
2018-01-13T23:26:26.447Z,1.20
2018-01-13T23:28:54.936Z,1.20
2018-01-13T23:31:23.124Z,1.30
2018-01-13T23:33:51.617Z,1.20
2018-01-13T23:36:20.091Z,1.20
2018-01-13T23:38:48.614Z,1.20
2018-01-13T23:41:17.708Z,1.20
2018-01-13T23:43:46.400Z,1.20
2018-01-13T23:46:16.071Z,1.10
2018-01-13T23:48:44.602Z,1.10
2018-01-13T23:51:13.914Z,1.20
2018-01-13T23:53:42.430Z,1.20
2018-01-13T23:56:10.609Z,1.30
2018-01-13T23:58:39.154Z,1.20
